Time;durP1;ratioP1;P1;durP2;ratioP2;P2;SDS_P1;SDS_P2;PMS_P1;PMS_P2;Temp;Humidity;BMP_temperature;BMP_pressure;BME280_temperature;BME280_humidity;BME280_pressure;Samples;Min_cycle;Max_cycle;Signal;HPM_P1;HPM_P2
2022/01/16 00:00:52;;;;;;;55.92;9.70;;;;;;;3.79;92.49;100647.84;5064261;28;20079;-74
2022/01/16 00:06:01;;;;;;;45.45;7.10;;;;;;;3.79;92.35;100661.56;5064099;28;20060;-75
2022/01/16 00:08:27;;;;;;;38.22;7.40;;;;;;;3.67;92.69;100636.47;5046111;28;20021;-75
2022/01/16 00:10:52;;;;;;;29.75;5.43;;;;;;;3.64;92.54;100621.00;5064127;28;20025;-73
2022/01/16 00:13:17;;;;;;;47.03;8.88;;;;;;;3.75;92.75;100633.22;5063952;28;20029;-71
2022/01/16 00:15:44;;;;;;;52.83;8.95;;;;;;;3.75;92.87;100631.53;5063839;28;20025;-71
2022/01/16 00:18:20;;;;;;;65.63;10.30;;;;;;;3.67;93.18;100636.47;5045922;28;20097;-70
2022/01/16 00:20:46;;;;;;;47.42;9.85;;;;;;;3.62;92.75;100614.06;5063678;28;20029;-69
2022/01/16 00:23:11;;;;;;;22.20;4.90;;;;;;;3.68;93.03;100635.63;5063684;28;20316;-70
2022/01/16 00:25:37;;;;;;;43.35;7.85;;;;;;;3.69;93.21;100631.38;5045895;28;20381;-70
2022/01/16 00:28:02;;;;;;;25.65;5.88;;;;;;;3.56;93.15;100596.84;5063759;28;20085;-70
2022/01/16 00:30:28;;;;;;;45.53;7.65;;;;;;;3.63;93.16;100606.41;5063691;28;20024;-71
2022/01/16 00:32:59;;;;;;;21.33;4.55;;;;;;;3.72;93.24;100616.88;5063683;28;20025;-71
2022/01/16 00:35:24;;;;;;;62.13;10.40;;;;;;;3.67;93.42;100597.09;5063438;28;20125;-71
2022/01/16 00:37:52;;;;;;;60.08;11.30;;;;;;;3.72;93.54;100593.78;5045515;28;20544;-72
2022/01/16 00:40:18;;;;;;;65.20;11.05;;;;;;;3.77;93.44;100587.91;5045466;28;20036;-72
2022/01/16 00:42:43;;;;;;;40.67;8.35;;;;;;;3.79;93.42;100578.50;5063486;28;20017;-72
2022/01/16 00:45:09;;;;;;;73.32;11.45;;;;;;;3.74;93.37;100572.41;5045225;28;20021;-72
2022/01/16 00:47:34;;;;;;;55.72;9.10;;;;;;;3.82;93.24;100576.00;5063350;28;20017;-71
2022/01/16 00:50:01;;;;;;;36.28;8.18;;;;;;;3.80;93.38;100578.53;5044275;28;20021;-74
2022/01/16 00:52:26;;;;;;;32.10;6.07;;;;;;;3.68;93.50;100575.69;5063192;28;20021;-73
2022/01/16 00:54:52;;;;;;;49.13;8.55;;;;;;;3.78;93.57;100599.91;5063166;28;20058;-73
2022/01/16 00:57:17;;;;;;;56.53;9.88;;;;;;;3.74;93.53;100572.41;5045356;28;20029;-73
2022/01/16 00:59:42;;;;;;;42.75;8.25;;;;;;;3.83;93.49;100583.75;5063007;28;20032;-74
2022/01/16 01:02:08;;;;;;;48.55;7.32;;;;;;;3.78;93.40;100589.63;5063330;28;20088;-74
2022/01/16 01:04:33;;;;;;;49.00;10.93;;;;;;;3.83;93.23;100586.31;5045237;28;20048;-74
2022/01/16 01:06:59;;;;;;;39.97;8.57;;;;;;;3.84;93.42;100584.63;5063036;28;20110;-75
2022/01/16 01:09:24;;;;;;;40.60;8.05;;;;;;;3.87;93.31;100573.53;5044988;28;20115;-74
2022/01/16 01:11:50;;;;;;;38.20;6.85;;;;;;;3.73;93.22;100535.59;5063006;28;20032;-76
2022/01/16 01:14:37;;;;;;;46.70;7.43;;;;;;;3.82;93.51;100542.63;5062786;28;20105;-74
2022/01/16 01:17:03;;;;;;;27.40;6.47;;;;;;;3.83;93.34;100537.50;5063087;28;20025;-74
2022/01/16 01:19:33;;;;;;;41.78;7.88;;;;;;;3.76;93.28;100516.81;5062921;28;20040;-74
2022/01/16 01:21:59;;;;;;;25.42;5.22;;;;;;;3.82;93.27;100528.09;5045227;28;20021;-74
2022/01/16 01:24:25;;;;;;;79.45;11.20;;;;;;;3.76;93.28;100506.53;5062846;28;20031;-75
2022/01/16 01:27:33;;;;;;;62.08;10.15;;;;;;;3.86;93.21;100518.75;5063177;28;20028;-75
2022/01/16 01:29:45;;;;;;;28.23;6.43;;;;;;;3.72;93.08;100483.34;5056796;28;20037;-75
2022/01/16 01:32:10;;;;;;;27.23;6.05;;;;;;;3.83;93.05;100509.25;5064562;28;20025;-74
2022/01/16 01:34:37;;;;;;;36.00;8.32;;;;;;;3.84;93.26;100520.41;5066707;28;20132;-74
2022/01/16 01:37:02;;;;;;;44.58;9.32;;;;;;;3.71;93.34;100481.63;5048925;28;20437;-74
2022/01/16 01:39:29;;;;;;;54.50;9.82;;;;;;;3.81;93.14;100518.66;5066938;28;20025;-74
2022/01/16 01:42:04;;;;;;;26.60;6.07;;;;;;;3.81;93.32;100492.09;5067120;28;20025;-74
2022/01/16 01:52:42;;;;;;;64.60;11.07;;;;;;;3.78;93.65;100464.66;5066636;28;20027;-73
2022/01/16 01:55:08;;;;;;;49.00;9.38;;;;;;;3.78;93.58;100467.22;5048749;28;20017;-73
2022/01/16 01:57:33;;;;;;;38.72;9.00;;;;;;;3.72;93.61;100457.69;5066973;28;20020;-72
2022/01/16 01:59:59;;;;;;;56.55;11.55;;;;;;;3.82;93.63;100487.00;5066346;28;20029;-75
2022/01/16 02:02:28;;;;;;;55.83;9.05;;;;;;;3.80;93.60;100475.81;5066632;28;20017;-73
2022/01/16 02:04:53;;;;;;;18.17;5.60;;;;;;;3.78;93.58;100477.50;5066293;28;20075;-73
2022/01/16 02:07:19;;;;;;;58.58;11.25;;;;;;;3.79;93.61;100473.22;5066345;28;20024;-73
2022/01/16 02:09:44;;;;;;;56.60;7.97;;;;;;;3.74;93.40;100456.88;5066319;28;20025;-74
2022/01/16 02:12:10;;;;;;;20.75;4.18;;;;;;;3.79;93.65;100455.22;5066257;28;20111;-73
2022/01/16 02:14:53;;;;;;;34.33;7.38;;;;;;;3.73;93.83;100438.00;5048098;28;20017;-72
2022/01/16 02:35:51;;;;;;;72.32;10.60;;;;;;;3.63;94.52;100364.19;5065871;28;20073;-70
2022/01/16 02:38:16;;;;;;;61.88;7.25;;;;;;;3.61;94.52;100384.69;5066018;28;20020;-71
2022/01/16 02:40:48;;;;;;;29.42;4.75;;;;;;;3.62;94.53;100365.91;5065968;28;20017;-70
2022/01/16 02:43:15;;;;;;;53.65;8.65;;;;;;;3.64;94.58;100361.69;5065953;28;20021;-70
2022/01/16 02:45:46;;;;;;;52.33;8.82;;;;;;;3.65;94.76;100357.38;5065644;28;20036;-71
2022/01/16 02:48:11;;;;;;;131.00;16.15;;;;;;;3.66;94.65;100366.84;5065858;28;20056;-71
2022/01/16 02:50:37;;;;;;;117.68;11.38;;;;;;;3.65;94.54;100357.38;5066133;28;20182;-71
2022/01/16 02:53:09;;;;;;;139.73;15.95;;;;;;;3.63;94.71;100346.22;5047428;28;20140;-71
2022/01/16 02:55:35;;;;;;;261.00;26.60;;;;;;;3.72;94.58;100364.38;5047555;28;20036;-73
2022/01/16 02:58:01;;;;;;;107.95;12.05;;;;;;;3.70;94.41;100366.06;5047546;28;20293;-72
2022/01/16 03:00:26;;;;;;;101.78;11.85;;;;;;;3.73;94.37;100363.53;5065263;28;20354;-72
2022/01/16 03:02:52;;;;;;;81.50;9.63;;;;;;;3.68;94.75;100365.16;5065456;28;20191;-73
2022/01/16 03:05:17;;;;;;;78.50;8.48;;;;;;;3.61;94.51;100361.59;5065266;28;20025;-73
2022/01/16 03:07:44;;;;;;;101.38;12.25;;;;;;;3.61;94.59;100360.75;5065691;28;20062;-73
2022/01/16 03:10:32;;;;;;;38.03;5.05;;;;;;;3.76;94.54;100366.16;5047239;28;20025;-73
2022/01/16 03:12:58;;;;;;;72.18;10.40;;;;;;;3.71;94.62;100357.50;5065098;28;20079;-74
2022/01/16 03:15:25;;;;;;;131.07;14.20;;;;;;;3.74;94.75;100372.97;5064969;28;20025;-74
2022/01/16 03:23:18;;;;;;;127.00;14.40;;;;;;;3.77;94.79;100370.47;5065330;28;20419;-74
2022/01/16 03:25:44;;;;;;;66.15;8.07;;;;;;;3.70;94.91;100342.94;5065337;28;20135;-73
2022/01/16 03:28:10;;;;;;;55.22;8.27;;;;;;;3.75;95.04;100349.03;5046960;28;20025;-73
2022/01/16 03:30:35;;;;;;;128.82;13.35;;;;;;;3.69;94.85;100328.38;5064708;28;20048;-72
2022/01/16 03:33:01;;;;;;;77.75;9.68;;;;;;;3.74;94.97;100333.59;5064880;28;20024;-72
2022/01/16 03:35:26;;;;;;;144.90;11.52;;;;;;;3.76;95.06;100337.91;5046392;28;20033;-70
2022/01/16 03:37:51;;;;;;;31.48;4.05;;;;;;;3.68;94.89;100319.81;5064644;28;20032;-70
2022/01/16 03:40:20;;;;;;;119.50;13.05;;;;;;;3.78;95.04;100323.41;5046652;28;20115;-70
2022/01/16 03:42:45;;;;;;;49.00;8.25;;;;;;;3.75;95.16;100314.78;5064787;28;20052;-70
2022/01/16 03:45:11;;;;;;;97.93;10.43;;;;;;;3.79;95.19;100319.13;5064353;28;20075;-71
2022/01/16 03:47:36;;;;;;;99.68;12.98;;;;;;;3.77;95.17;100290.00;5046478;28;20027;-71
2022/01/16 03:50:04;;;;;;;69.50;6.97;;;;;;;3.74;95.20;100303.63;5046453;28;20017;-69
2022/01/16 03:52:30;;;;;;;141.00;14.10;;;;;;;3.77;95.26;100306.25;5064781;28;20029;-69
2022/01/16 03:54:55;;;;;;;103.80;12.65;;;;;;;3.71;95.22;100276.22;5064112;28;20401;-71
2022/01/16 03:57:20;;;;;;;83.50;6.47;;;;;;;3.77;95.20;100288.28;5064208;28;20078;-70
2022/01/16 03:59:46;;;;;;;39.35;6.18;;;;;;;3.67;95.30;100274.44;5046131;28;20110;-70
2022/01/16 04:02:11;;;;;;;133.73;13.98;;;;;;;3.64;95.28;100263.25;5064096;28;20112;-69
2022/01/16 04:04:37;;;;;;;126.30;16.20;;;;;;;3.81;95.32;100282.38;5045910;28;20029;-69
2022/01/16 04:07:02;;;;;;;68.10;9.38;;;;;;;3.87;95.08;100271.34;5064215;28;20025;-69
2022/01/16 04:09:28;;;;;;;73.40;8.90;;;;;;;3.87;94.98;100262.75;5064192;28;20032;-68
2022/01/16 04:11:56;;;;;;;90.78;10.02;;;;;;;3.87;95.00;100252.47;5064117;28;20031;-68
2022/01/16 04:17:08;;;;;;;30.48;5.97;;;;;;;3.81;95.04;100233.59;5064194;28;20060;-68
2022/01/16 04:19:35;;;;;;;67.30;10.32;;;;;;;3.81;94.97;100235.28;5063927;28;20017;-67
2022/01/16 04:22:00;;;;;;;57.83;9.82;;;;;;;3.80;95.26;100231.84;5063856;28;20025;-68
2022/01/16 04:24:26;;;;;;;41.28;8.57;;;;;;;3.82;95.18;100227.59;5045658;28;20452;-67
2022/01/16 04:26:51;;;;;;;33.97;7.60;;;;;;;3.83;95.03;100223.34;5063656;28;20429;-67
2022/01/16 04:29:16;;;;;;;26.88;7.70;;;;;;;3.81;95.03;100201.91;5063621;28;20024;-66
2022/01/16 04:31:42;;;;;;;23.38;3.85;;;;;;;3.86;94.92;100199.41;5063694;28;20031;-67
2022/01/16 04:34:07;;;;;;;21.38;5.75;;;;;;;3.78;94.89;100201.84;5063454;28;20072;-68
2022/01/16 04:36:33;;;;;;;26.73;7.68;;;;;;;3.84;94.90;100205.38;5063739;28;20017;-67
2022/01/16 04:38:58;;;;;;;21.50;5.80;;;;;;;3.83;94.99;100193.34;5063714;28;20162;-67
2022/01/16 04:44:08;;;;;;;18.27;4.53;;;;;;;3.82;94.92;100191.66;5063468;28;20047;-67
2022/01/16 04:46:34;;;;;;;26.23;6.75;;;;;;;3.86;94.90;100196.81;5063663;28;20104;-68
2022/01/16 04:49:01;;;;;;;14.52;5.05;;;;;;;3.82;94.86;100177.94;5063472;28;20033;-69
2022/01/16 04:51:28;;;;;;;39.97;9.10;;;;;;;3.83;94.84;100187.38;5045498;28;20091;-68
2022/01/16 04:53:54;;;;;;;28.02;7.15;;;;;;;3.83;94.77;100189.94;5063553;28;20055;-68
2022/01/16 04:56:19;;;;;;;25.52;8.57;;;;;;;3.81;95.08;100186.50;5063331;28;20028;-68
2022/01/16 04:58:45;;;;;;;31.23;8.10;;;;;;;3.79;94.83;100181.31;5063216;28;20028;-68
2022/01/16 05:01:11;;;;;;;31.38;9.98;;;;;;;3.85;94.80;100175.41;5063832;28;20035;-67
2022/01/16 05:03:37;;;;;;;30.42;8.88;;;;;;;3.84;94.83;100182.28;5065172;28;20061;-69
2022/01/16 05:06:04;;;;;;;28.73;8.35;;;;;;;3.73;94.97;100158.13;5044750;28;20029;-69
2022/01/16 05:08:31;;;;;;;39.78;10.50;;;;;;;3.82;95.04;100163.41;5044866;28;20093;-68
2022/01/16 05:10:57;;;;;;;31.17;9.18;;;;;;;3.85;95.16;100162.56;5063555;28;20029;-68
2022/01/16 05:16:34;;;;;;;48.05;8.15;;;;;;;3.82;95.26;100144.53;5063094;28;20021;-69
2022/01/16 05:19:00;;;;;;;30.75;8.88;;;;;;;3.85;94.99;100139.44;5063372;28;20086;-68
2022/01/16 05:21:26;;;;;;;37.28;10.55;;;;;;;3.86;95.16;100135.19;5063087;28;20028;-67
2022/01/16 05:23:51;;;;;;;37.20;10.55;;;;;;;3.79;95.18;100124.84;5063093;28;20057;-68
2022/01/16 05:26:24;;;;;;;39.28;11.15;;;;;;;3.85;95.18;100129.19;5062977;28;20497;-69
2022/01/16 05:28:49;;;;;;;25.70;7.15;;;;;;;3.80;94.97;100110.28;5063264;28;20029;-70
2022/01/16 05:31:15;;;;;;;25.75;6.22;;;;;;;3.83;95.10;100112.91;5062921;28;20497;-69
2022/01/16 05:33:40;;;;;;;40.45;11.25;;;;;;;3.80;94.99;100116.28;5062606;28;20487;-69
2022/01/16 05:36:05;;;;;;;49.85;12.90;;;;;;;3.82;95.05;100109.47;5062997;28;20017;-68
2022/01/16 05:38:31;;;;;;;40.10;10.60;;;;;;;3.71;95.11;100096.47;5062827;28;20052;-69
2022/01/16 05:40:56;;;;;;;41.60;10.57;;;;;;;3.79;95.49;100095.72;5062814;28;20485;-69
2022/01/16 05:43:22;;;;;;;28.63;8.30;;;;;;;3.78;95.10;100091.44;5044695;28;20040;-72
2022/01/16 05:45:47;;;;;;;33.28;8.63;;;;;;;3.83;95.29;100100.91;5044468;28;20120;-69
2022/01/16 05:48:12;;;;;;;30.45;8.60;;;;;;;3.76;95.09;100067.41;5062808;28;20055;-70
2022/01/16 05:50:38;;;;;;;23.75;6.90;;;;;;;3.78;95.11;100073.44;5044966;28;20029;-69
2022/01/16 05:53:03;;;;;;;28.30;7.82;;;;;;;3.79;95.23;100062.31;5062793;28;20028;-70
2022/01/16 05:55:31;;;;;;;30.98;10.10;;;;;;;3.75;95.04;100063.13;5062484;28;20286;-71
2022/01/16 05:57:57;;;;;;;20.98;5.63;;;;;;;3.67;95.11;100038.22;5062654;28;20043;-70
2022/01/16 06:00:23;;;;;;;23.77;5.63;;;;;;;3.74;95.02;100052.00;5044519;28;20477;-69
2022/01/16 06:02:48;;;;;;;33.53;9.35;;;;;;;3.73;95.22;100047.72;5062812;28;20025;-69
2022/01/16 06:05:13;;;;;;;19.08;6.10;;;;;;;3.72;95.26;100048.56;5044562;28;20222;-69
2022/01/16 06:07:45;;;;;;;23.85;7.72;;;;;;;3.62;95.30;100033.84;5062616;28;20020;-69
2022/01/16 06:10:11;;;;;;;27.35;6.70;;;;;;;3.68;95.48;100047.66;5062611;28;20044;-69
2022/01/16 06:12:36;;;;;;;17.10;4.88;;;;;;;3.67;95.39;100040.78;5062730;28;20039;-69
2022/01/16 06:15:04;;;;;;;45.15;9.73;;;;;;;3.74;95.33;100043.44;5062213;28;20024;-69
2022/01/16 06:17:30;;;;;;;28.88;7.82;;;;;;;3.69;95.40;100036.53;5062396;28;20029;-69
2022/01/16 06:19:55;;;;;;;23.65;8.57;;;;;;;3.67;95.27;100027.09;5066094;28;20025;-69
2022/01/16 06:22:21;;;;;;;30.52;7.78;;;;;;;3.66;95.31;100015.94;5066187;28;20084;-70
2022/01/16 06:24:46;;;;;;;28.83;8.13;;;;;;;3.62;95.28;100024.47;5066051;28;20028;-69
2022/01/16 06:27:11;;;;;;;43.33;10.13;;;;;;;3.56;95.35;100008.97;5066084;28;20024;-69
2022/01/16 06:29:37;;;;;;;16.33;4.75;;;;;;;3.59;95.50;100011.59;5065823;28;20457;-69
2022/01/16 06:32:03;;;;;;;24.85;5.93;;;;;;;3.62;95.48;100021.03;5066117;28;20223;-70
2022/01/16 06:34:28;;;;;;;31.98;7.28;;;;;;;3.37;95.46;99977.06;5065783;28;20132;-70
2022/01/16 06:36:54;;;;;;;31.85;7.68;;;;;;;3.59;95.57;100011.59;5066000;28;20063;-69
2022/01/16 06:39:19;;;;;;;44.05;9.95;;;;;;;3.60;95.65;100010.72;5066090;28;20025;-69
2022/01/16 06:41:45;;;;;;;17.63;4.65;;;;;;;3.60;95.62;100008.16;5047949;28;20025;-69
2022/01/16 06:44:10;;;;;;;44.85;7.38;;;;;;;3.58;95.76;100002.13;5065354;28;20021;-69
2022/01/16 06:46:36;;;;;;;26.77;5.68;;;;;;;3.56;95.72;99999.53;5047602;28;20512;-68
2022/01/16 06:49:01;;;;;;;22.08;6.82;;;;;;;3.59;95.64;99998.75;5065516;28;20021;-68
2022/01/16 06:51:26;;;;;;;44.05;8.68;;;;;;;3.61;95.69;99984.22;5065686;28;20333;-68
2022/01/16 06:53:53;;;;;;;28.85;8.00;;;;;;;3.54;95.71;99973.00;5065431;28;20086;-69
2022/01/16 06:56:19;;;;;;;43.67;8.50;;;;;;;3.56;95.67;99971.31;5065594;28;20016;-69
2022/01/16 06:58:45;;;;;;;29.65;7.32;;;;;;;3.57;95.58;99985.03;5065627;28;20034;-69
2022/01/16 07:01:10;;;;;;;36.88;7.45;;;;;;;3.65;95.51;99993.69;5047353;28;20058;-69
2022/01/16 07:03:36;;;;;;;42.60;7.97;;;;;;;3.56;95.54;99973.88;5065261;28;20025;-69
2022/01/16 07:06:03;;;;;;;43.22;5.90;;;;;;;3.59;95.44;99973.06;5065051;28;20025;-70
2022/01/16 07:08:28;;;;;;;26.58;7.32;;;;;;;3.68;95.47;99988.59;5065302;28;20033;-69
2022/01/16 07:10:55;;;;;;;28.13;6.88;;;;;;;3.69;95.33;99982.59;5065276;28;20150;-69
2022/01/16 07:13:21;;;;;;;29.27;7.35;;;;;;;3.66;95.56;99971.47;5065421;28;20040;-69
2022/01/16 07:15:47;;;;;;;21.38;4.88;;;;;;;3.67;95.50;99976.63;5047150;28;20461;-69
2022/01/16 07:18:13;;;;;;;47.58;8.20;;;;;;;3.67;95.45;99974.03;5065339;28;20048;-69
2022/01/16 07:20:39;;;;;;;34.03;7.63;;;;;;;3.59;95.49;99955.94;5046953;28;20025;-68
2022/01/16 07:23:05;;;;;;;28.30;7.93;;;;;;;3.59;95.63;99952.53;5065197;28;20100;-69
2022/01/16 07:25:30;;;;;;;39.78;7.57;;;;;;;3.62;95.62;99961.97;5046872;28;20028;-68
2022/01/16 07:27:55;;;;;;;41.35;9.85;;;;;;;3.63;95.50;99959.44;5046834;28;20485;-68
2022/01/16 07:30:21;;;;;;;42.00;10.55;;;;;;;3.71;95.54;99977.50;5045591;28;20028;-68
2022/01/16 07:32:46;;;;;;;31.80;10.05;;;;;;;3.72;95.54;99974.94;5064771;28;20027;-68
2022/01/16 07:35:12;;;;;;;54.05;10.88;;;;;;;3.74;95.61;99969.00;5064414;28;20051;-69
2022/01/16 07:37:37;;;;;;;36.92;8.25;;;;;;;3.75;95.46;99969.00;5064555;28;20048;-68
2022/01/16 07:40:03;;;;;;;53.88;11.25;;;;;;;3.68;95.44;99962.06;5064543;28;20025;-69
2022/01/16 07:42:28;;;;;;;53.03;12.38;;;;;;;3.74;95.60;99958.72;5064621;28;20021;-69
2022/01/16 07:44:53;;;;;;;46.60;12.27;;;;;;;3.68;95.50;99942.38;5064254;28;20413;-67
2022/01/16 07:47:19;;;;;;;30.73;6.40;;;;;;;3.74;95.59;99948.44;5064806;28;20024;-68
2022/01/16 07:49:44;;;;;;;55.25;8.85;;;;;;;3.64;95.38;99930.38;5046601;28;20024;-69
2022/01/16 07:52:10;;;;;;;39.30;9.88;;;;;;;3.78;95.49;99939.94;5046381;28;20036;-67
2022/01/16 07:54:35;;;;;;;58.22;12.10;;;;;;;3.70;95.42;99922.72;5064219;28;20033;-68
2022/01/16 07:57:01;;;;;;;87.80;15.45;;;;;;;3.73;95.75;99932.16;5046237;28;20024;-69
2022/01/16 07:59:26;;;;;;;90.70;16.38;;;;;;;3.75;95.44;99914.22;5064280;28;20032;-69
2022/01/16 08:01:52;;;;;;;94.68;17.98;;;;;;;3.81;95.51;99917.72;5046212;28;20032;-69
2022/01/16 08:04:20;;;;;;;74.88;16.52;;;;;;;3.81;95.28;99924.56;5064260;28;20021;-68
2022/01/16 08:06:45;;;;;;;53.25;10.95;;;;;;;3.75;95.35;99914.22;5064180;28;20492;-68
2022/01/16 08:09:13;;;;;;;52.80;12.07;;;;;;;3.76;95.64;99918.50;5064237;28;20045;-69
2022/01/16 08:11:38;;;;;;;80.78;17.88;;;;;;;3.76;95.73;99918.50;5063956;28;20025;-70
2022/01/16 08:14:04;;;;;;;99.43;16.88;;;;;;;3.79;95.68;99921.97;5063582;28;20028;-69
2022/01/16 08:16:29;;;;;;;61.88;15.38;;;;;;;3.67;95.54;99896.16;5064019;28;20055;-69
2022/01/16 08:18:54;;;;;;;59.58;14.93;;;;;;;3.81;95.60;99916.84;5064024;28;20076;-68
2022/01/16 08:21:20;;;;;;;47.78;12.45;;;;;;;3.76;95.73;99903.09;5064131;28;20044;-69
2022/01/16 08:23:45;;;;;;;31.05;8.57;;;;;;;3.72;95.77;99882.50;5063518;28;20040;-70
2022/01/16 08:26:10;;;;;;;43.97;12.18;;;;;;;3.82;95.80;99887.75;5063792;28;20017;-69
2022/01/16 08:28:36;;;;;;;45.58;13.70;;;;;;;3.88;95.84;99892.09;5045733;28;20025;-69
2022/01/16 08:31:01;;;;;;;56.05;16.23;;;;;;;3.88;95.77;99885.28;5063709;28;20035;-69
2022/01/16 08:33:27;;;;;;;57.65;17.77;;;;;;;3.82;95.97;99873.22;5045726;28;20428;-69
2022/01/16 08:35:52;;;;;;;57.30;15.35;;;;;;;3.85;95.94;99867.22;5063469;28;20528;-70
2022/01/16 08:38:17;;;;;;;47.80;13.63;;;;;;;3.93;96.05;99872.47;5063755;28;20044;-69
2022/01/16 08:40:43;;;;;;;51.42;14.65;;;;;;;3.88;95.87;99867.28;5063597;28;20032;-69
2022/01/16 08:43:09;;;;;;;62.92;17.55;;;;;;;3.98;96.03;99873.38;5063615;28;20102;-69
2022/01/16 08:45:39;;;;;;;26.70;9.07;;;;;;;4.02;96.01;99862.28;5063284;28;20021;-68
2022/01/16 08:48:05;;;;;;;41.08;13.50;;;;;;;4.04;96.01;99860.56;5063902;28;20032;-70
2022/01/16 08:50:32;;;;;;;57.25;18.30;;;;;;;3.99;95.93;99851.13;5063586;28;20082;-70
2022/01/16 08:52:57;;;;;;;39.45;13.85;;;;;;;4.11;96.08;99866.63;5063437;28;20032;-69
2022/01/16 08:55:23;;;;;;;69.88;18.60;;;;;;;4.04;95.92;99859.75;5063252;28;20020;-69
2022/01/16 08:57:48;;;;;;;47.47;12.98;;;;;;;4.11;95.91;99868.34;5063486;28;20056;-69
2022/01/16 09:00:14;;;;;;;66.15;20.58;;;;;;;4.13;96.01;99859.81;5045299;28;20017;-69
2022/01/16 09:02:39;;;;;;;43.00;11.48;;;;;;;4.05;95.87;99840.91;5063234;28;20047;-69
2022/01/16 09:05:05;;;;;;;48.03;16.02;;;;;;;4.11;95.95;99835.81;5063076;28;20025;-69
2022/01/16 09:07:31;;;;;;;39.75;11.25;;;;;;;4.15;96.16;99839.28;5063337;28;20036;-70
2022/01/16 09:09:59;;;;;;;36.65;10.75;;;;;;;4.09;95.93;99825.53;5063359;28;20048;-69
2022/01/16 09:12:24;;;;;;;56.47;17.42;;;;;;;4.07;96.02;99816.09;5045119;28;20043;-70
2022/01/16 09:14:51;;;;;;;50.58;12.30;;;;;;;4.20;95.93;99824.78;5063000;28;20029;-69
2022/01/16 09:17:16;;;;;;;74.03;21.67;;;;;;;4.23;95.84;99822.22;5063299;28;20032;-68
2022/01/16 09:19:42;;;;;;;54.08;17.15;;;;;;;4.19;95.77;99811.06;5063245;28;20040;-69
2022/01/16 09:22:10;;;;;;;59.53;15.55;;;;;;;4.09;95.66;99789.56;5045024;28;20021;-69
2022/01/16 09:24:35;;;;;;;37.75;12.45;;;;;;;4.21;95.70;99818.78;5062827;28;20025;-68
2022/01/16 09:27:01;;;;;;;21.50;9.13;;;;;;;4.23;95.58;99806.81;5062762;28;20140;-72
2022/01/16 09:29:26;;;;;;;32.88;11.57;;;;;;;4.17;95.82;99802.47;5062761;28;20087;-70
2022/01/16 09:31:52;;;;;;;28.67;9.63;;;;;;;4.21;95.89;99811.06;5063115;28;20025;-70
2022/01/16 09:34:18;;;;;;;54.08;15.57;;;;;;;4.21;96.05;99793.06;5062570;28;20069;-69
2022/01/16 09:36:43;;;;;;;43.88;14.65;;;;;;;4.24;95.98;99787.09;5062839;28;20017;-70
2022/01/16 09:39:09;;;;;;;44.15;15.30;;;;;;;4.16;96.03;99774.19;5062765;28;20477;-69
2022/01/16 09:41:35;;;;;;;47.55;15.80;;;;;;;4.32;96.10;99799.16;5063197;28;20036;-69
2022/01/16 09:44:01;;;;;;;31.65;10.55;;;;;;;4.30;95.71;99777.72;5062066;28;20024;-71
2022/01/16 09:46:26;;;;;;;47.78;15.85;;;;;;;4.37;95.73;99798.31;5061979;28;20036;-69
2022/01/16 09:48:51;;;;;;;47.45;12.77;;;;;;;4.34;95.93;99794.88;5062201;28;20445;-70
2022/01/16 09:51:17;;;;;;;27.05;9.70;;;;;;;4.36;95.82;99802.59;5062064;28;20021;-69
2022/01/16 09:53:45;;;;;;;25.88;8.85;;;;;;;4.35;95.67;99798.31;5045933;28;20380;-69
2022/01/16 09:56:11;;;;;;;26.98;9.95;;;;;;;4.24;95.65;99787.97;5066030;28;20033;-70
2022/01/16 09:58:39;;;;;;;28.08;10.55;;;;;;;4.27;95.58;99802.53;5065854;28;20052;-70
2022/01/16 10:01:04;;;;;;;37.70;11.27;;;;;;;4.29;95.89;99795.69;5065987;28;20017;-69
2022/01/16 10:03:42;;;;;;;31.27;11.07;;;;;;;4.32;96.22;99795.72;5066022;28;20051;-69
2022/01/16 10:06:17;;;;;;;14.57;5.47;;;;;;;4.40;95.82;99791.50;5066082;28;20118;-70
2022/01/16 10:08:44;;;;;;;37.97;15.75;;;;;;;4.42;95.97;99801.81;5066097;28;20025;-70
2022/01/16 10:11:19;;;;;;;35.53;12.30;;;;;;;4.37;95.91;99788.03;5047829;28;20031;-70
2022/01/16 10:13:59;;;;;;;29.20;9.75;;;;;;;4.47;95.71;99815.56;5065836;28;20027;-68
2022/01/16 10:16:27;;;;;;;17.63;8.40;;;;;;;4.38;95.69;99800.06;5065740;28;20051;-69
2022/01/16 10:18:53;;;;;;;16.58;6.70;;;;;;;4.49;95.81;99807.84;5065750;28;20025;-69
2022/01/16 10:21:36;;;;;;;24.50;7.65;;;;;;;4.50;95.65;99801.84;5047532;28;20047;-71
2022/01/16 10:24:24;;;;;;;28.65;9.65;;;;;;;4.54;95.51;99803.56;5047355;28;20020;-69
2022/01/16 10:27:09;;;;;;;47.28;15.55;;;;;;;4.54;95.64;99808.72;5065211;28;20101;-69
2022/01/16 10:29:37;;;;;;;31.42;11.13;;;;;;;4.49;95.39;99793.25;5065185;28;20250;-69
2022/01/16 10:32:21;;;;;;;38.00;12.80;;;;;;;4.47;95.53;99797.56;5047476;28;20040;-69
2022/01/16 10:34:51;;;;;;;41.58;15.52;;;;;;;4.51;95.34;99804.44;5047032;28;20033;-68
2022/01/16 10:37:30;;;;;;;44.38;13.98;;;;;;;4.43;95.78;99772.66;5065556;28;20021;-69
2022/01/16 10:39:58;;;;;;;31.98;13.02;;;;;;;4.54;95.51;99780.44;5065566;28;20045;-69
2022/01/16 10:42:24;;;;;;;46.55;14.65;;;;;;;4.55;95.35;99779.59;5047526;28;20025;-70
2022/01/16 10:45:06;;;;;;;25.42;10.32;;;;;;;4.58;95.41;99771.91;5065052;28;20051;-70
2022/01/16 10:47:33;;;;;;;;;;;;;;;4.62;95.18;99768.50;5065935;28;20028;-68
2022/01/16 10:50:21;;;;;;;39.78;14.15;;;;;;;4.63;95.16;99765.09;5065124;28;19935;-68
2022/01/16 10:52:53;;;;;;;25.30;10.00;;;;;;;4.60;95.33;99749.63;5047143;28;20029;-69
2022/01/16 10:55:33;;;;;;;17.33;6.93;;;;;;;4.63;95.08;99731.66;5064989;28;20045;-73
2022/01/16 10:58:01;;;;;;;39.75;14.02;;;;;;;4.64;95.20;99724.78;5065155;28;20017;-70
2022/01/16 11:00:26;;;;;;;37.97;12.48;;;;;;;4.66;95.07;99703.41;5064811;28;20025;-70
2022/01/16 11:02:54;;;;;;;33.72;10.85;;;;;;;4.65;94.90;99705.97;5065042;28;20485;-70
2022/01/16 11:05:22;;;;;;;29.65;9.27;;;;;;;4.59;94.94;99691.34;5063246;28;20029;-71
2022/01/16 11:07:58;;;;;;;33.40;10.82;;;;;;;4.71;95.08;99706.00;5047061;28;20028;-71
2022/01/16 11:10:38;;;;;;;20.38;7.40;;;;;;;4.75;94.81;99693.97;5064900;28;20085;-71
2022/01/16 11:13:07;;;;;;;23.67;7.28;;;;;;;4.68;94.77;99688.81;5063474;28;20056;-70
2022/01/16 11:15:34;;;;;;;34.60;13.65;;;;;;;4.69;94.69;99693.13;5064359;28;20074;-72
2022/01/16 11:18:00;;;;;;;23.33;7.32;;;;;;;4.70;94.89;99692.25;5064782;28;20020;-74
2022/01/16 11:20:31;;;;;;;27.23;9.35;;;;;;;4.70;94.73;99678.53;5064819;28;20032;-72
2022/01/16 11:25:34;;;;;;;32.58;13.30;;;;;;;4.68;94.76;99652.81;5064381;28;20060;-72
2022/01/16 11:28:16;;;;;;;28.52;10.90;;;;;;;4.77;94.58;99666.56;5064656;28;20258;-72
2022/01/16 11:30:47;;;;;;;;;;;;;;;4.78;94.42;99676.00;5065007;28;20039;-73
2022/01/16 11:33:13;;;;;;;27.45;10.05;;;;;;;4.76;94.51;99673.41;5064938;28;19913;-73
2022/01/16 11:35:42;;;;;;;17.20;7.90;;;;;;;4.77;94.71;99654.56;5046222;28;20041;-74
2022/01/16 11:38:09;;;;;;;17.90;7.05;;;;;;;4.75;94.54;99661.41;5064356;28;20458;-75
2022/01/16 11:40:44;;;;;;;27.35;9.05;;;;;;;4.77;94.50;99657.16;5046249;28;20067;-76
2022/01/16 11:43:24;;;;;;;17.13;6.78;;;;;;;4.83;94.26;99664.00;5064361;28;20096;-76
2022/01/16 11:46:18;;;;;;;28.30;8.10;;;;;;;4.82;94.16;99664.88;5063697;28;20081;-76
2022/01/16 11:48:51;;;;;;;29.05;6.65;;;;;;;4.79;94.28;99652.00;5055642;28;20057;-77
2022/01/16 11:51:40;;;;;;;6.22;2.65;;;;;;;4.92;94.26;99652.91;5064114;28;20101;-76
2022/01/16 11:54:15;;;;;;;16.33;4.45;;;;;;;5.04;94.24;99644.34;5064088;28;20040;-78
2022/01/16 11:56:40;;;;;;;20.85;5.80;;;;;;;5.08;93.68;99640.91;5064367;28;20111;-79
2022/01/16 11:59:12;;;;;;;15.85;3.60;;;;;;;5.14;93.49;99632.38;5064344;28;20021;-80
2022/01/16 12:01:44;;;;;;;16.70;4.80;;;;;;;5.20;93.00;99622.94;5046153;28;20028;-79
2022/01/16 12:04:28;;;;;;;19.50;5.43;;;;;;;5.28;93.15;99627.22;5064613;28;20104;-80
2022/01/16 12:07:12;;;;;;;12.15;3.63;;;;;;;5.39;92.73;99622.09;5046502;28;20029;-81
2022/01/16 12:12:11;;;;;;;19.88;4.78;;;;;;;5.52;91.94;99630.66;5064048;28;20036;-82
2022/01/16 12:14:46;;;;;;;4.45;2.35;;;;;;;5.41;91.15;99598.06;5063541;28;20025;-81
2022/01/16 12:17:48;;;;;;;7.68;2.22;;;;;;;5.43;90.58;99618.66;5063509;28;20020;-83